createdAt,value
2023-02-22T00:00:27.897Z,11.97
2023-02-22T00:02:59.692Z,12.30
2023-02-22T00:05:28.800Z,14.60
2023-02-22T00:07:57.770Z,13.17
2023-02-22T00:10:27.401Z,12.67
2023-02-22T00:12:57.028Z,12.37
2023-02-22T00:15:28.233Z,12.63
2023-02-22T00:17:57.075Z,11.80
2023-02-22T00:20:25.602Z,12.70
2023-02-22T00:22:53.765Z,12.57
2023-02-22T00:25:22.841Z,12.83
2023-02-22T00:27:52.953Z,12.47
2023-02-22T00:30:22.454Z,13.37
2023-02-22T00:32:51.114Z,12.70
2023-02-22T00:35:20.854Z,12.20
2023-02-22T00:37:49.650Z,12.73
2023-02-22T00:40:19.422Z,12.47
2023-02-22T00:42:47.984Z,12.40
2023-02-22T00:45:18.243Z,11.83
2023-02-22T00:47:46.394Z,11.53
2023-02-22T00:50:16.622Z,11.83
2023-02-22T00:52:45.019Z,12.17
2023-02-22T00:55:17.108Z,11.70
2023-02-22T00:57:45.292Z,12.03
2023-02-22T01:00:18.738Z,12.57
2023-02-22T01:02:50.664Z,12.17
2023-02-22T01:05:21.069Z,12.33
2023-02-22T01:07:49.782Z,12.00
2023-02-22T01:10:20.163Z,11.93
2023-02-22T01:12:48.397Z,12.10
2023-02-22T01:15:20.666Z,12.40
2023-02-22T01:17:49.386Z,13.10
2023-02-22T01:20:17.845Z,13.00
2023-02-22T01:22:47.399Z,13.07
2023-02-22T01:25:18.400Z,12.77
2023-02-22T01:27:46.573Z,13.87
2023-02-22T01:30:15.425Z,14.27
2023-02-22T01:32:45.039Z,14.03
2023-02-22T01:35:14.626Z,14.17
2023-02-22T01:37:43.254Z,13.30
2023-02-22T01:40:12.433Z,12.87
2023-02-22T01:42:40.577Z,12.80
2023-02-22T01:45:27.756Z,12.53
2023-02-22T01:47:58.037Z,12.13
2023-02-22T01:50:26.236Z,12.17
2023-02-22T01:52:54.408Z,12.33
2023-02-22T01:55:22.737Z,13.03
2023-02-22T01:57:51.237Z,11.70
2023-02-22T02:00:21.352Z,12.33
2023-02-22T02:02:51.243Z,12.37
2023-02-22T02:05:21.089Z,12.10
2023-02-22T02:07:49.322Z,13.37
2023-02-22T02:10:17.461Z,12.10
2023-02-22T02:12:47.048Z,12.37
2023-02-22T02:15:18.676Z,11.97
2023-02-22T02:17:46.926Z,12.43
2023-02-22T02:20:18.013Z,13.43
2023-02-22T02:22:50.021Z,12.03
2023-02-22T02:25:31.278Z,11.97
2023-02-22T02:28:14.304Z,11.50
2023-02-22T02:30:50.678Z,12.23
2023-02-22T02:33:22.741Z,11.03
2023-02-22T02:35:53.178Z,12.20
2023-02-22T02:38:24.687Z,11.60
2023-02-22T02:40:57.025Z,12.80
2023-02-22T02:43:28.292Z,11.83
2023-02-22T02:45:57.662Z,11.33
2023-02-22T02:48:28.654Z,12.67
2023-02-22T02:50:57.841Z,13.67
2023-02-22T02:53:27.592Z,13.00
2023-02-22T02:55:55.771Z,12.70
2023-02-22T02:58:24.764Z,13.27
2023-02-22T03:00:55.481Z,13.70
2023-02-22T03:03:41.443Z,13.43
2023-02-22T03:06:19.863Z,12.90
2023-02-22T03:08:50.376Z,13.20
2023-02-22T03:11:19.946Z,13.37
2023-02-22T03:13:53.300Z,13.30
2023-02-22T03:16:23.424Z,13.27
2023-02-22T03:18:55.305Z,13.10
2023-02-22T03:21:28.048Z,13.13
2023-02-22T03:24:01.307Z,12.70
2023-02-22T03:26:31.663Z,12.40
2023-02-22T03:29:00.310Z,12.30
2023-02-22T03:31:31.115Z,11.93
2023-02-22T03:34:01.437Z,12.13
2023-02-22T03:36:32.528Z,12.33
2023-02-22T03:39:04.185Z,11.47
2023-02-22T03:41:33.030Z,12.23
2023-02-22T03:44:03.167Z,12.40
2023-02-22T03:46:32.116Z,11.90
2023-02-22T03:49:01.763Z,10.87
2023-02-22T03:51:31.301Z,11.10
2023-02-22T03:53:59.480Z,11.37
2023-02-22T03:56:35.777Z,12.07
2023-02-22T03:59:04.587Z,11.20
2023-02-22T04:01:32.779Z,10.67
2023-02-22T04:04:01.316Z,11.23
2023-02-22T04:06:31.180Z,11.87
2023-02-22T04:08:59.370Z,11.30
2023-02-22T04:11:27.520Z,11.57
2023-02-22T04:13:55.791Z,11.70
2023-02-22T04:16:23.945Z,12.10
2023-02-22T04:18:52.126Z,10.87
2023-02-22T04:21:20.342Z,10.67
2023-02-22T04:23:49.855Z,11.30
2023-02-22T04:26:18.115Z,10.87
2023-02-22T04:28:46.288Z,11.80
2023-02-22T04:31:14.660Z,11.57
2023-02-22T04:33:42.977Z,11.40
2023-02-22T04:36:13.473Z,11.07
2023-02-22T04:38:41.644Z,11.10
2023-02-22T04:41:11.308Z,11.07
2023-02-22T04:43:39.497Z,10.80
2023-02-22T04:46:08.590Z,10.87
2023-02-22T04:48:36.869Z,11.30
2023-02-22T04:51:05.094Z,11.70
2023-02-22T04:53:33.265Z,11.20
2023-02-22T04:56:01.660Z,9.90
2023-02-22T04:58:31.691Z,10.77
2023-02-22T05:00:59.894Z,10.07
2023-02-22T05:03:28.090Z,10.83
2023-02-22T05:05:56.230Z,10.60
2023-02-22T05:08:24.394Z,10.03
2023-02-22T05:10:52.564Z,10.10
2023-02-22T05:13:20.732Z,10.77
2023-02-22T05:15:50.303Z,11.20
2023-02-22T05:18:18.494Z,9.93
2023-02-22T05:20:46.639Z,10.80
2023-02-22T05:23:15.402Z,9.60
2023-02-22T05:25:43.673Z,9.13
2023-02-22T05:28:13.576Z,8.93
2023-02-22T05:30:42.049Z,9.40
2023-02-22T05:33:12.869Z,8.50
2023-02-22T05:35:41.010Z,8.90
2023-02-22T05:38:09.360Z,8.90
2023-02-22T05:40:37.516Z,8.80
2023-02-22T05:43:05.730Z,8.63
2023-02-22T05:45:33.885Z,8.40
2023-02-22T05:48:02.028Z,8.20
2023-02-22T05:50:33.024Z,7.73
2023-02-22T05:53:01.212Z,7.63
2023-02-22T05:55:29.369Z,8.20
2023-02-22T05:57:57.512Z,8.20
2023-02-22T06:00:26.745Z,7.77
2023-02-22T06:02:55.649Z,7.23
2023-02-22T06:05:23.865Z,7.43
2023-02-22T06:07:53.804Z,7.73
2023-02-22T06:10:21.967Z,6.60
2023-02-22T06:12:50.675Z,8.17
2023-02-22T06:15:19.348Z,7.33
2023-02-22T06:17:47.776Z,7.17
2023-02-22T06:20:18.141Z,7.13
2023-02-22T06:22:48.382Z,7.83
2023-02-22T06:25:19.267Z,6.97
2023-02-22T06:27:47.480Z,6.87
2023-02-22T06:30:16.477Z,7.97
2023-02-22T06:32:44.652Z,6.80
2023-02-22T06:35:12.845Z,7.10
2023-02-22T06:37:41.544Z,7.33
2023-02-22T06:40:11.162Z,6.70
2023-02-22T06:42:40.903Z,5.97
2023-02-22T06:45:09.627Z,6.60
2023-02-22T06:47:40.173Z,6.40
2023-02-22T06:50:08.575Z,7.23
2023-02-22T06:52:36.734Z,6.23
2023-02-22T06:55:04.971Z,6.77
2023-02-22T06:57:33.122Z,6.47
2023-02-22T07:00:03.285Z,7.17
2023-02-22T07:02:31.420Z,6.27
2023-02-22T07:04:59.581Z,6.77
2023-02-22T07:07:27.739Z,6.73
2023-02-22T07:09:55.899Z,5.83
2023-02-22T07:12:24.017Z,6.00
2023-02-22T07:14:52.184Z,6.50
2023-02-22T07:17:21.692Z,6.00
2023-02-22T07:19:49.848Z,6.17
2023-02-22T07:22:18.064Z,6.43
2023-02-22T07:24:47.803Z,6.97
2023-02-22T07:27:15.964Z,6.40
2023-02-22T07:29:44.546Z,5.40
2023-02-22T07:32:12.808Z,6.63
2023-02-22T07:34:42.915Z,6.17
2023-02-22T07:37:11.192Z,5.40
2023-02-22T07:39:42.070Z,5.30
2023-02-22T07:42:10.244Z,6.10
2023-02-22T07:44:38.377Z,6.27
2023-02-22T07:47:06.621Z,5.83
2023-02-22T07:49:34.812Z,6.17
2023-02-22T07:52:04.311Z,5.67
2023-02-22T07:54:32.471Z,5.23
2023-02-22T07:57:00.621Z,5.23
2023-02-22T07:59:28.748Z,5.60
2023-02-22T08:01:56.894Z,4.93
2023-02-22T08:04:25.030Z,4.93
2023-02-22T08:06:53.185Z,5.03
2023-02-22T08:09:23.585Z,5.10
2023-02-22T08:11:51.733Z,5.77
2023-02-22T08:14:19.901Z,5.50
2023-02-22T08:16:48.102Z,4.97
2023-02-22T08:19:16.512Z,5.40
2023-02-22T08:21:44.838Z,5.63
2023-02-22T08:24:12.977Z,6.17
2023-02-22T08:26:47.274Z,6.97
2023-02-22T08:29:15.439Z,5.73
2023-02-22T08:31:43.605Z,6.13
2023-02-22T08:34:11.781Z,6.30
2023-02-22T08:36:43.366Z,5.63
2023-02-22T08:39:11.511Z,4.90
2023-02-22T08:41:39.642Z,4.80
2023-02-22T08:44:09.218Z,4.87
2023-02-22T08:46:37.424Z,4.53
2023-02-22T08:49:07.045Z,4.77
2023-02-22T08:51:36.669Z,4.10
2023-02-22T08:54:06.709Z,3.80
2023-02-22T08:56:34.864Z,4.50
2023-02-22T08:59:02.998Z,3.83
2023-02-22T09:01:34.498Z,4.17
2023-02-22T09:04:03.017Z,4.30
2023-02-22T09:06:31.287Z,4.43
2023-02-22T09:08:59.449Z,4.93
2023-02-22T09:11:27.620Z,4.63
2023-02-22T09:13:55.769Z,4.77
2023-02-22T09:16:24.021Z,4.87
2023-02-22T09:18:53.522Z,5.33
2023-02-22T09:21:21.758Z,5.60
2023-02-22T09:23:49.960Z,5.27
2023-02-22T09:26:18.121Z,5.07
2023-02-22T09:28:46.286Z,4.80
2023-02-22T09:31:14.680Z,5.27
2023-02-22T09:33:42.980Z,4.70
2023-02-22T09:36:12.525Z,4.43
2023-02-22T09:38:40.800Z,4.40
2023-02-22T09:41:12.278Z,4.50
2023-02-22T09:43:43.851Z,4.07
2023-02-22T09:46:19.606Z,3.60
2023-02-22T09:48:57.708Z,3.67
2023-02-22T09:51:29.068Z,3.63
2023-02-22T09:54:00.134Z,3.67
2023-02-22T09:56:28.683Z,4.10
2023-02-22T09:58:57.803Z,4.00
2023-02-22T10:01:28.377Z,4.17
2023-02-22T10:04:00.690Z,4.27
2023-02-22T10:06:30.602Z,3.90
2023-02-22T10:09:00.575Z,4.20
2023-02-22T10:11:37.541Z,3.97
2023-02-22T10:14:18.971Z,4.30
2023-02-22T10:16:51.415Z,4.47
2023-02-22T10:19:23.992Z,4.23
2023-02-22T10:21:59.209Z,4.93
2023-02-22T10:24:38.291Z,4.43
2023-02-22T10:27:08.098Z,4.83
2023-02-22T10:29:39.840Z,4.87
2023-02-22T10:32:12.434Z,4.53
2023-02-22T10:34:42.890Z,5.27
2023-02-22T10:37:18.761Z,4.93
2023-02-22T10:39:47.620Z,5.00
2023-02-22T10:42:15.873Z,5.03
2023-02-22T10:44:44.030Z,4.60
2023-02-22T10:47:16.596Z,5.27
2023-02-22T10:49:48.523Z,5.23
2023-02-22T10:52:21.156Z,5.37
2023-02-22T10:54:51.787Z,5.30
2023-02-22T10:57:22.810Z,5.10
2023-02-22T10:59:51.961Z,5.23
2023-02-22T11:02:21.467Z,5.00
2023-02-22T11:04:51.034Z,5.73
2023-02-22T11:07:25.065Z,5.90
2023-02-22T11:09:55.120Z,5.80
2023-02-22T11:12:28.508Z,5.90
2023-02-22T11:14:56.872Z,5.93
2023-02-22T11:17:32.933Z,6.20
2023-02-22T11:20:01.503Z,5.73
2023-02-22T11:22:33.432Z,4.97
2023-02-22T11:25:03.137Z,5.60
2023-02-22T11:27:38.183Z,6.17
2023-02-22T11:30:21.705Z,5.63
2023-02-22T11:32:51.203Z,5.67
2023-02-22T11:35:32.323Z,5.40
2023-02-22T11:38:17.799Z,5.33
2023-02-22T11:40:46.718Z,5.47
2023-02-22T11:43:17.358Z,5.40
2023-02-22T11:46:03.563Z,5.97
2023-02-22T11:48:34.627Z,5.33
2023-02-22T11:51:08.202Z,5.80
2023-02-22T11:53:45.264Z,5.50
2023-02-22T11:56:20.576Z,5.40
2023-02-22T11:58:55.423Z,5.73
2023-02-22T12:01:27.190Z,5.20
2023-02-22T12:04:16.484Z,5.70
2023-02-22T12:06:48.863Z,5.60
2023-02-22T12:09:23.074Z,5.60
2023-02-22T12:11:57.215Z,5.57
2023-02-22T12:14:27.712Z,5.80
2023-02-22T12:17:06.470Z,5.20
2023-02-22T12:19:37.919Z,5.87
2023-02-22T12:22:09.268Z,6.23
2023-02-22T12:24:40.383Z,6.33
2023-02-22T12:27:11.886Z,6.23
2023-02-22T12:29:43.620Z,5.40
2023-02-22T12:32:13.505Z,6.33
2023-02-22T12:34:44.255Z,6.50
2023-02-22T12:37:14.977Z,6.07
2023-02-22T12:39:53.619Z,6.13
2023-02-22T12:42:26.380Z,6.93
2023-02-22T12:44:56.853Z,6.50
2023-02-22T12:47:28.092Z,6.53
2023-02-22T12:49:59.120Z,6.33
2023-02-22T12:52:34.421Z,6.70
2023-02-22T12:55:05.711Z,6.10
2023-02-22T12:57:39.107Z,6.87
2023-02-22T13:00:15.565Z,6.13
2023-02-22T13:02:45.752Z,6.80
2023-02-22T13:05:16.378Z,6.50
2023-02-22T13:07:48.805Z,6.60
2023-02-22T13:10:30.798Z,6.73
2023-02-22T13:13:04.753Z,6.30
2023-02-22T13:15:37.965Z,6.67
2023-02-22T13:18:10.490Z,6.63
2023-02-22T13:20:41.784Z,6.87
2023-02-22T13:23:12.818Z,6.43
2023-02-22T13:25:44.656Z,6.63
2023-02-22T13:28:22.483Z,6.70
2023-02-22T13:31:01.476Z,6.60
2023-02-22T13:33:37.054Z,6.80
2023-02-22T13:36:16.714Z,7.20
2023-02-22T13:39:15.520Z,7.37
2023-02-22T13:42:07.667Z,7.20
2023-02-22T13:44:50.687Z,6.50
2023-02-22T13:47:36.997Z,6.70
2023-02-22T13:50:25.040Z,6.50
2023-02-22T13:52:55.100Z,7.10
2023-02-22T13:55:28.051Z,7.30
2023-02-22T13:58:02.523Z,7.57
2023-02-22T14:00:48.821Z,7.53
2023-02-22T14:03:34.204Z,7.27
2023-02-22T14:06:03.877Z,7.37
2023-02-22T14:08:42.107Z,7.53
2023-02-22T14:11:25.191Z,7.60
2023-02-22T14:14:18.349Z,7.07
2023-02-22T14:16:46.663Z,7.23
2023-02-22T14:19:22.850Z,6.97
2023-02-22T14:22:01.930Z,7.50
2023-02-22T14:24:31.260Z,8.33
2023-02-22T14:27:01.241Z,9.10
2023-02-22T14:29:29.620Z,7.67
2023-02-22T14:32:17.786Z,7.80
2023-02-22T14:34:49.687Z,6.97
2023-02-22T14:37:20.297Z,7.37
2023-02-22T14:39:51.206Z,7.13
2023-02-22T14:42:21.123Z,7.27
2023-02-22T14:44:54.396Z,7.10
2023-02-22T14:47:28.170Z,7.33
2023-02-22T14:49:58.629Z,7.10
2023-02-22T14:52:30.132Z,7.47
2023-02-22T14:55:04.310Z,7.63
2023-02-22T14:57:38.812Z,7.17
2023-02-22T15:00:19.685Z,7.80
2023-02-22T15:02:48.631Z,7.60
2023-02-22T15:05:19.519Z,8.07
2023-02-22T15:07:56.238Z,8.77
2023-02-22T15:10:26.645Z,7.90
2023-02-22T15:13:08.572Z,7.13
2023-02-22T15:15:37.598Z,7.40
2023-02-22T15:18:06.638Z,8.27
2023-02-22T15:20:38.210Z,8.43
2023-02-22T15:23:07.694Z,9.13
2023-02-22T15:25:37.570Z,8.23
2023-02-22T15:28:09.396Z,8.27
2023-02-22T15:30:37.711Z,8.03
2023-02-22T15:33:12.297Z,7.83
2023-02-22T15:35:40.646Z,7.90
2023-02-22T15:38:21.452Z,8.80
2023-02-22T15:41:00.096Z,8.60
2023-02-22T15:43:29.906Z,9.20
2023-02-22T15:45:59.076Z,9.13
2023-02-22T15:48:27.665Z,9.90
2023-02-22T15:51:06.535Z,9.13
2023-02-22T15:53:44.252Z,9.67
2023-02-22T15:56:15.070Z,9.70
2023-02-22T15:58:44.062Z,9.37
2023-02-22T16:01:14.158Z,9.73
2023-02-22T16:03:46.362Z,10.57
2023-02-22T16:06:16.026Z,9.60
2023-02-22T16:08:55.224Z,9.23
2023-02-22T16:11:29.820Z,9.50
2023-02-22T16:13:59.261Z,9.63
2023-02-22T16:16:30.163Z,9.60
2023-02-22T16:19:17.355Z,9.83
2023-02-22T16:21:53.918Z,9.53
2023-02-22T16:24:29.784Z,11.37
2023-02-22T16:27:08.788Z,10.17
2023-02-22T16:29:36.953Z,9.87
2023-02-22T16:32:05.461Z,9.93
2023-02-22T16:34:33.808Z,9.67
2023-02-22T16:37:02.402Z,10.03
2023-02-22T16:39:35.936Z,10.53
2023-02-22T16:42:05.319Z,10.47
2023-02-22T16:44:34.515Z,10.67
2023-02-22T16:47:02.689Z,10.07
2023-02-22T16:49:30.846Z,10.03
2023-02-22T16:52:01.470Z,11.07
2023-02-22T16:54:34.197Z,10.57
2023-02-22T16:57:04.583Z,12.13
2023-02-22T16:59:33.113Z,12.17
2023-02-22T17:02:01.264Z,12.60
2023-02-22T17:04:29.669Z,12.70
2023-02-22T17:06:59.064Z,11.97
2023-02-22T17:09:27.544Z,13.10
2023-02-22T17:11:57.055Z,12.83
2023-02-22T17:14:28.889Z,12.83
2023-02-22T17:16:59.328Z,13.37
2023-02-22T17:19:27.529Z,12.87
2023-02-22T17:21:55.704Z,13.90
2023-02-22T17:24:29.113Z,13.40
2023-02-22T17:26:59.215Z,13.50
2023-02-22T17:29:28.870Z,13.50
2023-02-22T17:31:57.439Z,13.50
2023-02-22T17:34:25.709Z,13.97
2023-02-22T17:36:53.929Z,13.37
2023-02-22T17:39:22.132Z,14.67
2023-02-22T17:41:56.754Z,14.63
2023-02-22T17:44:25.146Z,14.17
2023-02-22T17:46:54.841Z,14.50
2023-02-22T17:49:23.025Z,17.23
2023-02-22T17:51:53.076Z,14.93
2023-02-22T17:54:21.402Z,15.77
2023-02-22T17:56:49.529Z,15.87
2023-02-22T17:59:17.673Z,15.03
2023-02-22T18:01:46.017Z,14.87
2023-02-22T18:04:15.515Z,16.17
2023-02-22T18:06:43.717Z,15.87
2023-02-22T18:09:11.895Z,18.00
2023-02-22T18:11:41.024Z,16.73
2023-02-22T18:14:10.784Z,16.87
2023-02-22T18:16:39.339Z,16.83
2023-02-22T18:19:08.006Z,18.07
2023-02-22T18:21:38.747Z,17.60
2023-02-22T18:24:07.552Z,17.17
2023-02-22T18:26:36.395Z,19.83
2023-02-22T18:29:04.541Z,17.30
2023-02-22T18:31:32.744Z,18.53
2023-02-22T18:34:00.947Z,17.87
2023-02-22T18:36:29.122Z,19.33
2023-02-22T18:38:58.909Z,19.97
2023-02-22T18:41:28.342Z,19.00
2023-02-22T18:43:58.936Z,20.53
2023-02-22T18:46:29.766Z,19.33
2023-02-22T18:48:58.340Z,19.23
2023-02-22T18:51:27.082Z,20.53
2023-02-22T18:53:59.959Z,21.40
2023-02-22T18:56:30.657Z,21.63
2023-02-22T18:58:59.920Z,20.43
2023-02-22T19:01:28.211Z,21.23
2023-02-22T19:03:56.507Z,21.93
2023-02-22T19:06:25.713Z,21.57
2023-02-22T19:08:53.901Z,22.50
2023-02-22T19:11:23.394Z,21.13
2023-02-22T19:13:53.790Z,22.10
2023-02-22T19:16:22.834Z,20.93
2023-02-22T19:18:52.362Z,21.27
2023-02-22T19:21:21.579Z,23.00
2023-02-22T19:23:50.348Z,23.57
2023-02-22T19:26:20.457Z,22.20
2023-02-22T19:28:49.287Z,22.40
2023-02-22T19:31:20.477Z,22.90
2023-02-22T19:33:51.136Z,22.20
2023-02-22T19:36:20.225Z,22.73
2023-02-22T19:38:48.476Z,22.17
2023-02-22T19:41:18.446Z,21.40
2023-02-22T19:43:50.894Z,22.77
2023-02-22T19:46:21.234Z,22.07
2023-02-22T19:48:49.835Z,22.97
2023-02-22T19:51:18.844Z,23.37
2023-02-22T19:53:48.250Z,22.97
2023-02-22T19:56:17.667Z,22.77
2023-02-22T19:58:46.429Z,23.97
2023-02-22T20:01:14.796Z,23.77
2023-02-22T20:03:44.419Z,23.13
2023-02-22T20:06:16.507Z,23.73
2023-02-22T20:08:44.669Z,23.43
2023-02-22T20:11:14.174Z,23.93
2023-02-22T20:13:43.616Z,23.63
2023-02-22T20:16:15.512Z,23.80
2023-02-22T20:18:45.349Z,23.90
2023-02-22T20:21:15.270Z,23.97
2023-02-22T20:23:44.351Z,21.47
2023-02-22T20:26:15.703Z,22.93
2023-02-22T20:28:43.965Z,23.73
2023-02-22T20:31:13.676Z,22.37
2023-02-22T20:33:42.665Z,21.53
2023-02-22T20:36:13.533Z,23.27
2023-02-22T20:38:41.756Z,23.03
2023-02-22T20:41:10.706Z,22.43
2023-02-22T20:43:39.538Z,21.87
2023-02-22T20:46:08.967Z,21.67
2023-02-22T20:48:37.349Z,23.13
2023-02-22T20:51:09.099Z,22.10
2023-02-22T20:53:39.308Z,22.97
2023-02-22T20:56:07.766Z,22.87
2023-02-22T20:58:36.031Z,22.30
2023-02-22T21:01:07.462Z,21.63
2023-02-22T21:03:36.570Z,20.93
2023-02-22T21:06:05.984Z,21.60
2023-02-22T21:08:34.565Z,22.80
2023-02-22T21:11:04.197Z,22.17
2023-02-22T21:13:32.332Z,20.37
2023-02-22T21:16:00.540Z,21.50
2023-02-22T21:18:28.716Z,22.20
2023-02-22T21:20:56.872Z,21.93
2023-02-22T21:23:25.055Z,21.70
2023-02-22T21:25:53.487Z,22.90
2023-02-22T21:28:27.686Z,20.87
2023-02-22T21:31:05.258Z,21.80
2023-02-22T21:33:34.830Z,22.70
2023-02-22T21:36:11.007Z,22.47
2023-02-22T21:38:39.208Z,22.33
2023-02-22T21:41:07.413Z,22.07
2023-02-22T21:43:36.979Z,21.03
2023-02-22T21:46:05.482Z,23.13
2023-02-22T21:48:34.638Z,22.33
2023-02-22T21:51:08.821Z,24.37
2023-02-22T21:53:37.178Z,23.67
2023-02-22T21:56:06.065Z,24.70
2023-02-22T21:58:34.345Z,22.73
2023-02-22T22:01:07.505Z,23.97
2023-02-22T22:03:36.305Z,24.30
2023-02-22T22:06:09.679Z,24.23
2023-02-22T22:08:40.002Z,23.07
2023-02-22T22:11:09.218Z,23.87
2023-02-22T22:13:39.132Z,23.23
2023-02-22T22:16:10.309Z,23.17
2023-02-22T22:18:39.587Z,23.40
2023-02-22T22:21:10.596Z,23.17
2023-02-22T22:23:40.038Z,23.73
2023-02-22T22:26:11.559Z,21.77
2023-02-22T22:28:40.870Z,21.57
2023-02-22T22:31:10.867Z,21.87
2023-02-22T22:33:39.421Z,22.93
2023-02-22T22:36:09.202Z,22.07
2023-02-22T22:38:38.595Z,22.10
2023-02-22T22:41:07.238Z,22.67
2023-02-22T22:43:35.972Z,22.60
2023-02-22T22:46:04.481Z,22.70
2023-02-22T22:48:36.118Z,22.27
2023-02-22T22:51:06.440Z,22.43
2023-02-22T22:53:35.431Z,22.73
2023-02-22T22:56:08.236Z,21.97
2023-02-22T22:58:36.852Z,23.20
2023-02-22T23:01:06.720Z,22.13
2023-02-22T23:03:37.031Z,22.10
2023-02-22T23:06:05.882Z,22.47
2023-02-22T23:08:42.973Z,22.97
2023-02-22T23:11:11.730Z,24.00
2023-02-22T23:13:40.510Z,23.73
2023-02-22T23:16:12.203Z,23.33
2023-02-22T23:18:43.233Z,23.10
2023-02-22T23:21:11.629Z,23.50
2023-02-22T23:23:41.108Z,22.60
2023-02-22T23:26:15.743Z,23.80
2023-02-22T23:28:43.872Z,24.00
2023-02-22T23:31:14.235Z,23.23
2023-02-22T23:33:44.002Z,24.67
2023-02-22T23:36:12.710Z,25.47
2023-02-22T23:38:41.990Z,24.47
2023-02-22T23:41:10.833Z,25.13
2023-02-22T23:43:40.419Z,25.80
2023-02-22T23:46:11.208Z,26.17
2023-02-22T23:48:39.966Z,25.60
2023-02-22T23:51:10.189Z,26.60
2023-02-22T23:53:39.090Z,25.73
2023-02-22T23:56:09.898Z,26.13
2023-02-22T23:58:39.053Z,26.37
